Time;durP1;ratioP1;P1;durP2;ratioP2;P2;SDS_P1;SDS_P2;PMS_P1;PMS_P2;Temp;Humidity;BMP_temperature;BMP_pressure;BME280_temperature;BME280_humidity;BME280_pressure;Samples;Min_cycle;Max_cycle;Signal;HPM_P1;HPM_P2
2022/12/21 00:00:48;;;;;;;;;;;23.70;78.90;;;;;;5092278;28;20380;-48
2022/12/21 00:03:13;;;;;;;;;;;23.70;78.90;;;;;;5093559;28;19919;-49
2022/12/21 00:05:39;;;;;;;;;;;23.70;78.90;;;;;;5092864;28;19908;-49
2022/12/21 00:08:04;;;;;;;;;;;23.70;79.00;;;;;;5109495;28;19923;-48
2022/12/21 00:10:30;;;;;;;;;;;23.70;79.00;;;;;;5093792;28;19992;-47
2022/12/21 00:12:55;;;;;;;;;;;23.70;79.00;;;;;;5094166;28;19962;-52
2022/12/21 00:15:21;;;;;;;;;;;23.70;79.00;;;;;;5092713;28;20339;-48
2022/12/21 00:17:46;;;;;;;;;;;23.70;79.10;;;;;;5092518;28;20260;-50
2022/12/21 00:20:12;;;;;;;;;;;23.60;79.10;;;;;;5094022;28;19908;-47
2022/12/21 00:22:37;;;;;;;;;;;23.70;79.20;;;;;;5093417;28;20278;-48
2022/12/21 00:25:03;;;;;;;;;;;23.70;79.20;;;;;;5092540;28;19943;-50
2022/12/21 00:27:29;;;;;;;;;;;23.60;79.20;;;;;;5078156;28;19916;-50
2022/12/21 00:29:55;;;;;;;;;;;23.70;79.20;;;;;;5096962;28;19912;-49
2022/12/21 00:32:20;;;;;;;;;;;23.70;79.20;;;;;;5096807;28;19916;-51
2022/12/21 00:34:46;;;;;;;;;;;23.60;79.30;;;;;;5096748;28;19923;-48
2022/12/21 00:37:11;;;;;;;;;;;23.60;79.30;;;;;;5095341;28;19924;-50
2022/12/21 00:39:37;;;;;;;;;;;23.60;79.30;;;;;;5097142;28;20366;-50
2022/12/21 00:42:03;;;;;;;;;;;23.70;79.20;;;;;;5097012;28;19908;-49
2022/12/21 00:44:28;;;;;;;;;;;23.80;79.20;;;;;;5096668;28;19908;-50
2022/12/21 00:46:54;;;;;;;;;;;23.80;79.10;;;;;;5093675;28;19912;-54
2022/12/21 00:49:19;;;;;;;;;;;23.80;79.10;;;;;;5096433;28;19920;-49
2022/12/21 00:51:45;;;;;;;;;;;23.80;79.10;;;;;;5096322;28;19950;-49
2022/12/21 00:54:10;;;;;;;;;;;23.80;79.00;;;;;;5097155;28;19908;-51
2022/12/21 00:56:36;;;;;;;;;;;23.80;79.00;;;;;;5095483;28;20358;-50
2022/12/21 00:59:01;;;;;;;;;;;23.80;79.00;;;;;;5096764;28;19912;-50
2022/12/21 01:01:28;;;;;;;;;;;23.90;78.90;;;;;;5094520;28;19927;-47
2022/12/21 01:03:54;;;;;;;;;;;23.90;79.00;;;;;;5095781;28;19912;-50
2022/12/21 01:06:27;;;;;;;;;;;23.90;79.00;;;;;;5096491;28;19915;-52
2022/12/21 01:08:53;;;;;;;;;;;24.00;79.10;;;;;;5096109;28;19949;-51
2022/12/21 01:11:19;;;;;;;;;;;24.00;79.00;;;;;;5096421;28;19912;-50
2022/12/21 01:13:45;;;;;;;;;;;23.90;79.00;;;;;;5094682;28;19978;-49
2022/12/21 01:16:12;;;;;;;;;;;23.90;79.00;;;;;;5094285;28;19912;-48
2022/12/21 01:18:37;;;;;;;;;;;23.90;79.00;;;;;;5096242;28;19915;-48
2022/12/21 01:21:03;;;;;;;;;;;23.90;79.10;;;;;;5096262;28;20273;-50
2022/12/21 01:23:28;;;;;;;;;;;23.80;79.20;;;;;;5096069;28;19927;-49
2022/12/21 01:25:54;;;;;;;;;;;23.80;79.20;;;;;;5095207;28;20286;-47
2022/12/21 01:28:19;;;;;;;;;;;23.80;79.30;;;;;;5094435;28;19951;-51
2022/12/21 01:30:45;;;;;;;;;;;23.80;79.30;;;;;;5094497;28;19916;-49
2022/12/21 01:33:15;;;;;;;;;;;23.80;79.30;;;;;;5095758;28;19991;-48
2022/12/21 01:35:41;;;;;;;;;;;23.70;79.50;;;;;;5094276;28;19912;-51
2022/12/21 01:38:07;;;;;;;;;;;23.70;79.40;;;;;;5095210;28;19920;-48
2022/12/21 01:40:32;;;;;;;;;;;23.70;79.40;;;;;;5095932;28;19947;-48
2022/12/21 01:42:58;;;;;;;;;;;23.80;79.50;;;;;;5095835;28;19951;-53
2022/12/21 01:45:26;;;;;;;;;;;23.70;79.40;;;;;;5094823;28;19939;-48
2022/12/21 01:47:54;;;;;;;;;;;23.80;79.50;;;;;;5075973;28;19973;-49
2022/12/21 01:50:23;;;;;;;;;;;23.70;79.50;;;;;;5077413;28;19955;-47
2022/12/21 01:52:49;;;;;;;;;;;23.70;79.40;;;;;;5095974;28;19908;-51
2022/12/21 01:55:14;;;;;;;;;;;23.80;79.50;;;;;;5095318;28;19933;-48
2022/12/21 01:57:40;;;;;;;;;;;23.80;79.60;;;;;;5095069;28;20003;-54
2022/12/21 02:00:08;;;;;;;;;;;23.80;79.50;;;;;;5094721;28;20373;-52
2022/12/21 02:02:37;;;;;;;;;;;23.80;79.40;;;;;;5095150;28;20286;-48
2022/12/21 02:05:06;;;;;;;;;;;23.80;79.50;;;;;;5077704;28;19916;-48
2022/12/21 02:07:32;;;;;;;;;;;23.80;79.50;;;;;;5077087;28;19916;-51
2022/12/21 02:09:57;;;;;;;;;;;23.80;79.40;;;;;;5094080;28;19916;-48
2022/12/21 02:12:24;;;;;;;;;;;23.80;79.40;;;;;;5094985;28;20426;-48
2022/12/21 02:14:49;;;;;;;;;;;23.80;79.50;;;;;;5095561;28;19908;-50
2022/12/21 02:17:33;;;;;;;;;;;23.80;79.40;;;;;;5095228;28;20010;-53
2022/12/21 02:20:17;;;;;;;;;;;23.80;79.40;;;;;;5094122;28;19919;-47
2022/12/21 02:23:00;;;;;;;;;;;23.80;79.90;;;;;;5095123;28;20310;-47
2022/12/21 02:25:41;;;;;;;;;;;23.90;79.30;;;;;;5094775;28;19914;-52
2022/12/21 02:28:07;;;;;;;;;;;23.90;79.40;;;;;;5095120;28;20529;-48
2022/12/21 02:30:51;;;;;;;;;;;23.90;79.50;;;;;;5088975;28;19927;-48
2022/12/21 02:33:17;;;;;;;;;;;23.90;79.60;;;;;;5095189;28;19948;-52
2022/12/21 02:35:45;;;;;;;;;;;23.90;79.50;;;;;;5094510;28;19971;-51
2022/12/21 02:38:23;;;;;;;;;;;24.00;79.40;;;;;;5075244;28;20396;-52
2022/12/21 02:41:17;;;;;;;;;;;24.00;79.90;;;;;;5092721;28;20007;-49
2022/12/21 02:46:36;;;;;;;;;;;24.10;79.60;;;;;;5093950;28;20005;-48
2022/12/21 02:49:19;;;;;;;;;;;24.10;79.50;;;;;;5091880;28;19927;-47
2022/12/21 02:51:55;;;;;;;;;;;24.00;79.40;;;;;;5092226;28;19916;-51
2022/12/21 02:54:22;;;;;;;;;;;24.10;79.40;;;;;;5094414;28;19912;-49
2022/12/21 02:56:47;;;;;;;;;;;24.10;79.40;;;;;;5094315;28;20409;-47
2022/12/21 02:59:14;;;;;;;;;;;24.10;79.50;;;;;;5094247;28;19908;-49
2022/12/21 03:01:50;;;;;;;;;;;24.00;79.40;;;;;;5091309;28;19908;-48
2022/12/21 03:04:28;;;;;;;;;;;24.00;79.30;;;;;;5075743;28;19914;-49
2022/12/21 03:07:06;;;;;;;;;;;24.10;80.10;;;;;;5091683;28;19912;-50
2022/12/21 03:09:35;;;;;;;;;;;24.00;79.60;;;;;;5076437;28;20309;-48
2022/12/21 03:12:11;;;;;;;;;;;24.00;79.70;;;;;;5094409;28;19903;-49
2022/12/21 03:14:39;;;;;;;;;;;24.00;79.70;;;;;;5074681;28;19912;-50
2022/12/21 03:17:08;;;;;;;;;;;24.00;79.80;;;;;;5091436;28;20380;-47
2022/12/21 03:19:40;;;;;;;;;;;23.90;79.60;;;;;;5091539;28;19909;-53
2022/12/21 03:22:08;;;;;;;;;;;23.90;79.60;;;;;;5091212;28;20397;-51
2022/12/21 03:24:44;;;;;;;;;;;23.90;79.70;;;;;;5076247;28;19966;-50
2022/12/21 03:27:17;;;;;;;;;;;24.00;79.70;;;;;;5094132;28;19904;-48
2022/12/21 03:29:52;;;;;;;;;;;24.00;79.60;;;;;;5088624;28;20007;-49
2022/12/21 03:32:21;;;;;;;;;;;24.00;79.50;;;;;;5088333;28;20012;-53
2022/12/21 03:34:48;;;;;;;;;;;24.00;79.30;;;;;;5073908;28;19912;-50
2022/12/21 03:37:23;;;;;;;;;;;24.10;79.30;;;;;;5073556;28;20357;-52
2022/12/21 03:39:52;;;;;;;;;;;24.10;79.20;;;;;;5055882;28;19908;-48
2022/12/21 03:42:23;;;;;;;;;;;24.10;79.30;;;;;;5091747;28;19912;-49
2022/12/21 03:44:53;;;;;;;;;;;24.00;79.30;;;;;;5075098;28;19920;-48
2022/12/21 03:47:22;;;;;;;;;;;24.10;79.20;;;;;;5092942;28;19919;-48
2022/12/21 03:49:53;;;;;;;;;;;24.10;79.30;;;;;;5093957;28;20366;-48
2022/12/21 03:52:20;;;;;;;;;;;24.10;79.20;;;;;;5093853;28;19997;-51
2022/12/21 03:54:58;;;;;;;;;;;24.10;79.20;;;;;;5093157;28;19970;-50
2022/12/21 03:57:24;;;;;;;;;;;24.10;79.20;;;;;;5090740;28;19916;-47
2022/12/21 03:59:51;;;;;;;;;;;24.10;79.10;;;;;;5092897;28;19987;-50
2022/12/21 04:02:29;;;;;;;;;;;24.10;79.50;;;;;;5093337;28;19912;-50
2022/12/21 04:05:02;;;;;;;;;;;24.10;79.40;;;;;;5097621;28;19908;-49
2022/12/21 04:07:28;;;;;;;;;;;24.10;79.30;;;;;;5097364;28;20422;-51
2022/12/21 04:09:57;;;;;;;;;;;24.10;79.30;;;;;;5097482;28;19951;-47
2022/12/21 04:12:38;;;;;;;;;;;24.10;79.30;;;;;;5095005;28;19912;-51
2022/12/21 04:15:18;;;;;;;;;;;24.10;79.30;;;;;;5097577;28;20401;-47
2022/12/21 04:17:44;;;;;;;;;;;24.10;79.30;;;;;;5097266;28;19931;-47
2022/12/21 04:20:12;;;;;;;;;;;24.10;79.20;;;;;;5076645;28;19958;-47
2022/12/21 04:28:13;;;;;;;;;;;24.10;78.90;;;;;;5096081;28;20381;-52
2022/12/21 04:30:39;;;;;;;;;;;24.10;78.90;;;;;;5095777;28;19922;-52
2022/12/21 04:33:06;;;;;;;;;;;24.10;78.90;;;;;;5092966;28;20382;-49
2022/12/21 04:35:31;;;;;;;;;;;24.10;78.90;;;;;;5094835;28;19919;-50
2022/12/21 04:37:57;;;;;;;;;;;24.10;78.80;;;;;;5084573;28;19917;-49
2022/12/21 04:40:23;;;;;;;;;;;24.10;78.80;;;;;;5095016;28;19930;-52
2022/12/21 04:42:48;;;;;;;;;;;24.20;79.10;;;;;;5096666;28;20004;-48
2022/12/21 04:45:14;;;;;;;;;;;24.10;79.00;;;;;;5093811;28;19943;-48
2022/12/21 04:47:39;;;;;;;;;;;24.20;79.10;;;;;;5076561;28;19916;-46
2022/12/21 04:50:05;;;;;;;;;;;24.10;79.00;;;;;;5094848;28;20305;-52
2022/12/21 04:52:31;;;;;;;;;;;24.20;78.90;;;;;;5094717;28;19911;-47
2022/12/21 04:54:57;;;;;;;;;;;24.20;79.20;;;;;;5091380;28;19920;-52
2022/12/21 04:57:22;;;;;;;;;;;24.20;79.10;;;;;;5094599;28;19911;-48
2022/12/21 04:59:48;;;;;;;;;;;24.20;79.00;;;;;;5094443;28;19904;-48
2022/12/21 05:02:13;;;;;;;;;;;24.20;79.20;;;;;;5094454;28;20272;-51
2022/12/21 05:04:39;;;;;;;;;;;24.10;79.10;;;;;;5093621;28;19905;-49
2022/12/21 05:07:04;;;;;;;;;;;24.10;79.10;;;;;;5078484;28;19905;-49
2022/12/21 05:09:30;;;;;;;;;;;24.10;79.20;;;;;;5096366;28;19963;-49
2022/12/21 05:11:55;;;;;;;;;;;24.10;79.20;;;;;;5095895;28;20313;-49
2022/12/21 05:14:21;;;;;;;;;;;24.10;79.30;;;;;;5094876;28;19907;-50
2022/12/21 05:16:47;;;;;;;;;;;24.00;79.30;;;;;;5094953;28;19908;-52
2022/12/21 05:19:13;;;;;;;;;;;24.10;79.30;;;;;;5095972;28;19904;-48
2022/12/21 05:21:39;;;;;;;;;;;24.00;79.40;;;;;;5095908;28;19952;-50
2022/12/21 05:24:05;;;;;;;;;;;24.00;79.30;;;;;;5095781;28;19904;-52
2022/12/21 05:26:30;;;;;;;;;;;24.10;79.30;;;;;;5094592;28;19908;-48
2022/12/21 05:28:55;;;;;;;;;;;24.10;79.20;;;;;;5095751;28;19942;-48
2022/12/21 05:31:21;;;;;;;;;;;24.10;79.10;;;;;;5092352;28;19931;-52
2022/12/21 05:33:47;;;;;;;;;;;24.10;79.10;;;;;;5095865;28;19912;-48
2022/12/21 05:36:13;;;;;;;;;;;24.10;79.00;;;;;;5095961;28;19923;-51
2022/12/21 05:38:39;;;;;;;;;;;24.10;79.00;;;;;;5095404;28;19967;-48
2022/12/21 05:41:04;;;;;;;;;;;24.10;79.10;;;;;;5095814;28;20003;-48
2022/12/21 05:43:30;;;;;;;;;;;24.10;79.20;;;;;;5094454;28;19915;-48
2022/12/21 05:46:02;;;;;;;;;;;24.10;79.10;;;;;;5095684;28;20343;-50
2022/12/21 05:48:28;;;;;;;;;;;24.10;79.30;;;;;;5095594;28;19908;-48
2022/12/21 05:50:53;;;;;;;;;;;24.10;79.20;;;;;;5095449;28;19914;-50
2022/12/21 05:53:19;;;;;;;;;;;24.00;79.10;;;;;;5093168;28;19912;-48
2022/12/21 05:55:44;;;;;;;;;;;24.00;79.30;;;;;;5095502;28;19903;-52
2022/12/21 05:58:10;;;;;;;;;;;24.10;79.20;;;;;;5076981;28;19904;-54
2022/12/21 06:00:36;;;;;;;;;;;24.00;79.20;;;;;;5095119;28;19959;-47
2022/12/21 06:03:01;;;;;;;;;;;24.00;79.20;;;;;;5093718;28;19916;-47
2022/12/21 06:05:27;;;;;;;;;;;24.00;79.10;;;;;;5095073;28;19904;-51
2022/12/21 06:07:52;;;;;;;;;;;24.10;79.10;;;;;;5094740;28;20419;-50
2022/12/21 06:10:18;;;;;;;;;;;24.10;79.20;;;;;;5077316;28;19908;-50
2022/12/21 06:12:43;;;;;;;;;;;24.10;79.00;;;;;;5094477;28;19908;-48
2022/12/21 06:15:09;;;;;;;;;;;24.10;79.00;;;;;;5094743;28;20042;-49
2022/12/21 06:17:34;;;;;;;;;;;24.10;78.90;;;;;;5076902;28;19981;-49
2022/12/21 06:20:00;;;;;;;;;;;24.10;78.90;;;;;;5095318;28;19904;-49
2022/12/21 06:22:25;;;;;;;;;;;24.10;78.90;;;;;;5094806;28;20361;-49
2022/12/21 06:24:51;;;;;;;;;;;24.10;78.90;;;;;;5075039;28;19908;-48
2022/12/21 06:27:16;;;;;;;;;;;24.10;78.80;;;;;;5094816;28;19904;-51
2022/12/21 06:29:42;;;;;;;;;;;24.10;78.90;;;;;;5076638;28;20192;-53
2022/12/21 06:32:07;;;;;;;;;;;24.10;78.90;;;;;;5094763;28;19904;-51
2022/12/21 06:34:33;;;;;;;;;;;24.10;79.00;;;;;;5092946;28;19912;-51
2022/12/21 06:36:58;;;;;;;;;;;24.10;79.00;;;;;;5094334;28;19916;-49
2022/12/21 06:39:23;;;;;;;;;;;24.10;79.00;;;;;;5094429;28;19908;-50
2022/12/21 06:41:49;;;;;;;;;;;24.00;79.10;;;;;;5094469;28;19999;-48
2022/12/21 06:44:14;;;;;;;;;;;24.00;79.00;;;;;;5093339;28;19950;-52
2022/12/21 06:46:40;;;;;;;;;;;24.00;79.30;;;;;;5093706;28;20456;-49
2022/12/21 06:49:05;;;;;;;;;;;23.90;79.30;;;;;;5075858;28;19912;-51
2022/12/21 06:51:31;;;;;;;;;;;23.90;79.50;;;;;;5094138;28;20066;-51
2022/12/21 06:53:56;;;;;;;;;;;23.90;79.60;;;;;;5094052;28;19904;-51
2022/12/21 06:56:23;;;;;;;;;;;23.90;79.60;;;;;;5092997;28;20424;-51
2022/12/21 06:58:50;;;;;;;;;;;23.90;79.70;;;;;;5094165;28;19904;-50
2022/12/21 07:01:19;;;;;;;;;;;23.80;79.60;;;;;;5092858;28;20005;-49
2022/12/21 07:03:45;;;;;;;;;;;23.80;79.60;;;;;;5094012;28;19926;-53
2022/12/21 07:06:12;;;;;;;;;;;23.80;79.60;;;;;;5093206;28;19908;-51
2022/12/21 07:08:37;;;;;;;;;;;23.90;79.70;;;;;;5094120;28;20346;-49
2022/12/21 07:11:04;;;;;;;;;;;23.90;79.70;;;;;;5094183;28;20400;-51
2022/12/21 07:13:30;;;;;;;;;;;23.90;79.60;;;;;;5093975;28;19904;-50
2022/12/21 07:15:56;;;;;;;;;;;23.90;79.70;;;;;;5089044;28;20258;-52
2022/12/21 07:18:22;;;;;;;;;;;23.90;79.60;;;;;;5090216;28;19923;-50
2022/12/21 07:20:48;;;;;;;;;;;23.90;79.80;;;;;;5091325;28;19954;-51
2022/12/21 07:23:13;;;;;;;;;;;23.90;79.80;;;;;;5091983;28;19916;-48
2022/12/21 07:25:39;;;;;;;;;;;23.90;79.40;;;;;;5093833;28;19967;-49
2022/12/21 07:28:04;;;;;;;;;;;24.00;79.40;;;;;;5093723;28;20374;-47
2022/12/21 07:30:30;;;;;;;;;;;24.00;79.30;;;;;;5090140;28;19924;-51
2022/12/21 07:32:55;;;;;;;;;;;24.10;79.20;;;;;;5093537;28;20006;-52
2022/12/21 07:35:21;;;;;;;;;;;24.00;79.30;;;;;;5093600;28;20315;-49
2022/12/21 07:37:47;;;;;;;;;;;24.00;79.30;;;;;;5096463;28;20362;-51
2022/12/21 07:40:15;;;;;;;;;;;24.00;79.30;;;;;;5109560;28;19918;-48
2022/12/21 07:42:42;;;;;;;;;;;24.10;79.70;;;;;;5100359;28;19987;-50
2022/12/21 07:45:07;;;;;;;;;;;23.90;77.30;;;;;;5093147;28;19938;-48
2022/12/21 07:47:33;;;;;;;;;;;23.60;75.50;;;;;;5097291;28;19908;-52
2022/12/21 07:49:58;;;;;;;;;;;23.70;77.90;;;;;;5093529;28;19916;-54
2022/12/21 07:52:24;;;;;;;;;;;23.70;78.50;;;;;;5095965;28;20007;-51
2022/12/21 07:54:49;;;;;;;;;;;23.70;79.10;;;;;;5097609;28;19908;-53
2022/12/21 07:57:15;;;;;;;;;;;23.80;79.30;;;;;;5097603;28;20262;-51
2022/12/21 07:59:40;;;;;;;;;;;23.80;79.30;;;;;;5094107;27;19909;-49
2022/12/21 08:02:05;;;;;;;;;;;23.80;79.30;;;;;;5090610;28;19926;-52
2022/12/21 08:04:31;;;;;;;;;;;23.80;79.40;;;;;;5096043;28;19919;-50
2022/12/21 08:06:56;;;;;;;;;;;23.80;79.50;;;;;;5095423;28;19912;-50
2022/12/21 08:09:22;;;;;;;;;;;23.80;79.50;;;;;;5078411;28;19963;-52
2022/12/21 08:11:47;;;;;;;;;;;23.80;79.50;;;;;;5106189;28;19916;-54
2022/12/21 08:14:13;;;;;;;;;;;23.80;79.50;;;;;;5093812;28;19916;-53
2022/12/21 08:16:38;;;;;;;;;;;23.80;79.50;;;;;;5096391;28;19930;-51
2022/12/21 08:19:04;;;;;;;;;;;23.80;79.50;;;;;;5096026;28;19912;-53
2022/12/21 08:21:29;;;;;;;;;;;23.80;79.30;;;;;;5105208;28;19919;-49
2022/12/21 08:23:55;;;;;;;;;;;23.80;79.60;;;;;;5092669;28;20370;-52
2022/12/21 08:26:20;;;;;;;;;;;23.80;79.50;;;;;;5096940;28;20057;-55
2022/12/21 08:28:47;;;;;;;;;;;23.80;79.60;;;;;;5096088;28;19920;-54
2022/12/21 08:31:13;;;;;;;;;;;23.80;79.70;;;;;;5094989;28;19999;-51
2022/12/21 08:33:43;;;;;;;;;;;23.80;79.70;;;;;;5094094;28;19934;-53
2022/12/21 08:36:14;;;;;;;;;;;23.80;79.70;;;;;;5096985;28;19948;-48
2022/12/21 08:38:39;;;;;;;;;;;23.80;79.80;;;;;;5095065;28;20387;-50
2022/12/21 08:41:05;;;;;;;;;;;23.80;79.80;;;;;;5092927;28;19962;-47
2022/12/21 08:43:30;;;;;;;;;;;23.80;79.80;;;;;;5088352;28;19917;-49
2022/12/21 08:45:56;;;;;;;;;;;23.80;79.90;;;;;;5099496;28;19911;-51
2022/12/21 08:48:22;;;;;;;;;;;23.80;79.90;;;;;;5106425;28;19927;-52
2022/12/21 08:50:51;;;;;;;;;;;23.80;79.90;;;;;;5092607;28;20007;-49
2022/12/21 08:53:16;;;;;;;;;;;23.80;79.80;;;;;;5105262;28;19916;-50
2022/12/21 08:55:41;;;;;;;;;;;23.90;79.90;;;;;;5091883;28;19939;-52
2022/12/21 08:58:07;;;;;;;;;;;23.90;79.90;;;;;;5096590;28;19922;-52
2022/12/21 09:00:32;;;;;;;;;;;23.90;79.80;;;;;;5102668;28;19911;-52
2022/12/21 09:02:58;;;;;;;;;;;23.90;79.80;;;;;;5079729;28;19916;-53
2022/12/21 09:05:23;;;;;;;;;;;23.90;79.80;;;;;;5091601;28;19919;-47
2022/12/21 09:07:49;;;;;;;;;;;23.90;79.80;;;;;;5092200;28;19939;-49
2022/12/21 09:10:14;;;;;;;;;;;23.90;79.80;;;;;;5095001;28;19912;-51
2022/12/21 09:12:40;;;;;;;;;;;23.90;79.80;;;;;;5099660;28;20278;-50
2022/12/21 09:15:05;;;;;;;;;;;24.00;79.80;;;;;;5094984;28;19951;-51
2022/12/21 09:17:31;;;;;;;;;;;24.00;79.80;;;;;;5113110;28;19912;-48
2022/12/21 09:19:56;;;;;;;;;;;24.00;79.70;;;;;;5096120;28;19912;-46
2022/12/21 09:22:23;;;;;;;;;;;24.10;79.70;;;;;;5095098;28;19952;-55
2022/12/21 09:24:48;;;;;;;;;;;24.10;79.60;;;;;;5100858;28;19958;-49
2022/12/21 09:27:14;;;;;;;;;;;24.10;79.60;;;;;;5094029;28;19911;-48
2022/12/21 09:29:39;;;;;;;;;;;24.10;79.50;;;;;;5089722;28;19920;-48
2022/12/21 09:32:05;;;;;;;;;;;24.20;79.60;;;;;;5093449;28;20279;-49
2022/12/21 09:34:30;;;;;;;;;;;24.20;79.50;;;;;;5094821;28;19957;-52
2022/12/21 09:36:56;;;;;;;;;;;24.20;79.50;;;;;;5104115;28;20445;-50
2022/12/21 09:39:22;;;;;;;;;;;24.30;79.40;;;;;;5094595;28;19916;-54
2022/12/21 09:42:06;;;;;;;;;;;24.30;79.40;;;;;;5093859;28;20424;-54
2022/12/21 09:44:37;;;;;;;;;;;24.30;79.30;;;;;;5094003;28;19919;-54
2022/12/21 09:47:04;;;;;;;;;;;24.30;79.40;;;;;;5094316;28;20003;-51
2022/12/21 09:49:41;;;;;;;;;;;24.30;79.40;;;;;;5092113;28;19916;-53
2022/12/21 09:52:14;;;;;;;;;;;24.30;79.40;;;;;;5091445;28;19912;-49
2022/12/21 09:54:42;;;;;;;;;;;24.20;79.40;;;;;;5093746;28;19919;-55
2022/12/21 09:57:10;;;;;;;;;;;24.20;79.40;;;;;;5094828;28;19947;-51
2022/12/21 09:59:35;;;;;;;;;;;24.20;79.50;;;;;;5092312;28;19990;-53
2022/12/21 10:02:11;;;;;;;;;;;24.20;79.60;;;;;;5097842;28;20369;-53
2022/12/21 10:04:49;;;;;;;;;;;24.20;79.60;;;;;;5094137;28;19915;-49
2022/12/21 10:07:40;;;;;;;;;;;24.20;79.60;;;;;;5093340;28;20014;-51
2022/12/21 10:10:29;;;;;;;;;;;24.10;79.70;;;;;;5070843;28;19919;-51
2022/12/21 10:13:10;;;;;;;;;;;24.20;79.80;;;;;;5085943;28;19908;-51
2022/12/21 10:15:44;;;;;;;;;;;24.10;79.80;;;;;;5089281;28;19912;-55
2022/12/21 10:18:10;;;;;;;;;;;24.10;79.80;;;;;;5107999;28;19966;-57
2022/12/21 10:20:48;;;;;;;;;;;24.10;79.90;;;;;;5104277;28;19912;-54
2022/12/21 10:23:25;;;;;;;;;;;23.90;77.90;;;;;;5094990;28;20351;-52
2022/12/21 10:25:54;;;;;;;;;;;23.90;79.50;;;;;;5111165;28;19912;-52
2022/12/21 10:28:38;;;;;;;;;;;23.90;79.70;;;;;;5089415;28;19919;-52
2022/12/21 10:31:08;;;;;;;;;;;23.90;79.90;;;;;;5083990;28;20002;-52
2022/12/21 10:33:35;;;;;;;;;;;23.90;79.80;;;;;;5092846;28;19904;-53
2022/12/21 10:36:02;;;;;;;;;;;24.00;79.80;;;;;;5094126;28;20004;-55
2022/12/21 10:38:31;;;;;;;;;;;24.00;79.80;;;;;;5094477;28;19923;-52
2022/12/21 10:40:56;;;;;;;;;;;24.00;79.70;;;;;;5094076;28;19919;-55
2022/12/21 10:43:22;;;;;;;;;;;24.00;79.60;;;;;;5093814;28;19912;-48
2022/12/21 10:45:48;;;;;;;;;;;24.00;79.70;;;;;;5092827;28;19908;-53
2022/12/21 10:48:14;;;;;;;;;;;24.10;79.70;;;;;;5094453;28;19908;-53
2022/12/21 10:50:48;;;;;;;;;;;24.10;79.80;;;;;;5094191;28;19912;-56
2022/12/21 10:53:24;;;;;;;;;;;24.10;79.70;;;;;;5094569;28;19904;-54
2022/12/21 10:55:59;;;;;;;;;;;24.10;79.60;;;;;;5092796;28;20258;-52
2022/12/21 10:58:28;;;;;;;;;;;24.10;79.60;;;;;;5094070;28;19905;-50
2022/12/21 11:00:56;;;;;;;;;;;24.20;79.60;;;;;;5093911;28;20019;-50
2022/12/21 11:03:22;;;;;;;;;;;24.20;79.50;;;;;;5094122;28;19908;-54
2022/12/21 11:05:47;;;;;;;;;;;24.20;79.40;;;;;;5073143;28;19908;-56
2022/12/21 11:08:13;;;;;;;;;;;24.30;79.50;;;;;;5074527;28;19981;-49
2022/12/21 11:10:39;;;;;;;;;;;24.30;79.40;;;;;;5094239;28;19995;-54
2022/12/21 11:13:05;;;;;;;;;;;24.30;79.30;;;;;;5094375;28;19911;-54
2022/12/21 11:15:31;;;;;;;;;;;24.40;79.30;;;;;;5092347;28;19908;-50
2022/12/21 11:17:56;;;;;;;;;;;24.40;79.30;;;;;;5093837;28;19904;-56
2022/12/21 11:20:23;;;;;;;;;;;24.30;79.30;;;;;;5094276;28;19912;-55
2022/12/21 11:22:51;;;;;;;;;;;24.30;79.30;;;;;;5093579;28;19904;-56
2022/12/21 11:25:18;;;;;;;;;;;24.30;79.40;;;;;;5093841;28;19904;-51
2022/12/21 11:27:45;;;;;;;;;;;24.30;79.50;;;;;;5091682;28;20258;-54
2022/12/21 11:30:17;;;;;;;;;;;24.30;79.60;;;;;;5093631;28;20002;-55
2022/12/21 11:32:43;;;;;;;;;;;24.20;79.60;;;;;;5075922;28;20362;-54
2022/12/21 11:35:17;;;;;;;;;;;24.20;79.60;;;;;;5093740;28;19904;-54
2022/12/21 11:37:45;;;;;;;;;;;24.20;79.80;;;;;;5089877;28;20026;-54
2022/12/21 11:40:10;;;;;;;;;;;24.00;78.90;;;;;;5091222;28;19931;-57
2022/12/21 11:42:48;;;;;;;;;;;24.10;79.80;;;;;;5093903;28;20346;-54
2022/12/21 11:45:18;;;;;;;;;;;24.10;79.90;;;;;;5093571;28;20369;-56
2022/12/21 11:47:51;;;;;;;;;;;24.10;79.80;;;;;;5093466;28;19943;-57
2022/12/21 11:50:20;;;;;;;;;;;24.20;79.90;;;;;;5091587;28;19916;-57
2022/12/21 11:53:01;;;;;;;;;;;24.20;79.90;;;;;;5093611;28;19931;-56
2022/12/21 11:55:35;;;;;;;;;;;24.20;79.90;;;;;;5075563;28;19911;-58
2022/12/21 11:58:11;;;;;;;;;;;24.20;80.40;;;;;;5093679;28;19914;-55
2022/12/21 12:00:46;;;;;;;;;;;24.20;79.80;;;;;;5092058;28;19915;-60
2022/12/21 12:03:30;;;;;;;;;;;24.20;79.80;;;;;;5090185;28;19912;-51
2022/12/21 12:06:02;;;;;;;;;;;24.20;79.80;;;;;;5091684;28;19908;-53
2022/12/21 12:08:30;;;;;;;;;;;24.30;79.80;;;;;;5075110;28;20346;-52
2022/12/21 12:11:14;;;;;;;;;;;24.20;79.70;;;;;;5093315;28;19912;-54
2022/12/21 12:14:01;;;;;;;;;;;24.30;79.80;;;;;;5093575;28;19950;-55
2022/12/21 12:16:45;;;;;;;;;;;24.30;79.80;;;;;;5091094;28;20374;-49
2022/12/21 12:19:20;;;;;;;;;;;24.30;80.40;;;;;;5075780;28;20305;-52
2022/12/21 12:21:46;;;;;;;;;;;24.20;80.00;;;;;;5102519;28;20303;-55
2022/12/21 12:24:35;;;;;;;;;;;24.10;79.70;;;;;;5095118;28;20404;-52
2022/12/21 12:27:03;;;;;;;;;;;24.10;79.10;;;;;;5089645;28;20309;-54
2022/12/21 12:29:47;;;;;;;;;;;24.10;79.70;;;;;;5095077;28;20029;-51
2022/12/21 12:32:20;;;;;;;;;;;24.10;79.80;;;;;;5087515;28;20017;-52
2022/12/21 12:35:04;;;;;;;;;;;24.10;79.80;;;;;;5086232;28;20437;-51
2022/12/21 12:37:59;;;;;;;;;;;24.10;79.80;;;;;;5094246;28;19920;-51
2022/12/21 12:40:43;;;;;;;;;;;24.10;79.80;;;;;;5022637;28;19913;-49
2022/12/21 12:43:19;;;;;;;;;;;24.10;79.80;;;;;;5116445;28;20301;-50
2022/12/21 12:45:47;;;;;;;;;;;24.10;79.90;;;;;;5110221;28;20380;-50
2022/12/21 12:48:31;;;;;;;;;;;24.00;79.90;;;;;;5075996;28;19923;-53
2022/12/21 12:51:21;;;;;;;;;;;24.00;79.90;;;;;;5090186;28;19916;-52
2022/12/21 12:53:50;;;;;;;;;;;24.00;79.90;;;;;;5095117;28;19912;-51
2022/12/21 12:56:23;;;;;;;;;;;24.00;79.90;;;;;;5089081;28;19912;-54
2022/12/21 12:58:56;;;;;;;;;;;24.00;79.90;;;;;;5081277;28;19912;-58
2022/12/21 13:01:48;;;;;;;;;;;24.00;79.70;;;;;;5094943;28;19916;-53
2022/12/21 13:04:32;;;;;;;;;;;24.00;79.90;;;;;;5087882;28;19912;-54
2022/12/21 13:07:00;;;;;;;;;;;24.00;79.80;;;;;;5096365;28;19908;-54
2022/12/21 13:09:39;;;;;;;;;;;24.00;79.90;;;;;;5096021;28;19918;-56
2022/12/21 13:12:05;;;;;;;;;;;24.00;79.90;;;;;;5077871;28;19916;-52
2022/12/21 13:14:33;;;;;;;;;;;24.00;79.90;;;;;;5095057;28;19935;-51
2022/12/21 13:17:10;;;;;;;;;;;24.00;79.90;;;;;;5096151;28;19912;-55
2022/12/21 13:19:37;;;;;;;;;;;24.10;80.00;;;;;;5095974;28;19908;-54
2022/12/21 13:22:03;;;;;;;;;;;24.00;80.00;;;;;;5096261;28;19962;-53
2022/12/21 13:24:32;;;;;;;;;;;24.10;80.00;;;;;;5093806;28;19962;-56
2022/12/21 13:27:00;;;;;;;;;;;24.10;80.00;;;;;;5094481;28;20002;-56
2022/12/21 13:29:43;;;;;;;;;;;24.10;80.00;;;;;;5095817;28;20025;-55
2022/12/21 13:32:13;;;;;;;;;;;24.10;80.10;;;;;;5095877;28;20329;-54
2022/12/21 13:34:46;;;;;;;;;;;24.10;80.10;;;;;;5094285;28;19974;-52
2022/12/21 13:37:13;;;;;;;;;;;24.10;80.10;;;;;;5093098;28;20318;-56
2022/12/21 13:39:41;;;;;;;;;;;24.10;80.10;;;;;;5093959;28;19912;-57
2022/12/21 13:42:12;;;;;;;;;;;24.10;80.20;;;;;;5093578;28;19938;-57
2022/12/21 13:44:41;;;;;;;;;;;24.00;80.20;;;;;;5095295;28;20010;-58
2022/12/21 13:47:08;;;;;;;;;;;24.00;80.20;;;;;;5095069;28;19955;-56
2022/12/21 13:49:34;;;;;;;;;;;24.10;80.30;;;;;;5095049;28;19916;-53
2022/12/21 13:52:04;;;;;;;;;;;24.00;80.30;;;;;;5092875;28;20393;-55
2022/12/21 13:54:33;;;;;;;;;;;24.10;80.40;;;;;;5095296;28;20476;-54
2022/12/21 13:57:10;;;;;;;;;;;24.10;80.30;;;;;;5095239;28;19909;-53
2022/12/21 13:59:38;;;;;;;;;;;24.10;80.30;;;;;;5094902;28;20394;-58
2022/12/21 14:02:04;;;;;;;;;;;24.10;80.30;;;;;;5091975;28;20054;-56
2022/12/21 14:04:41;;;;;;;;;;;24.10;80.30;;;;;;5090951;28;20002;-55
2022/12/21 14:07:12;;;;;;;;;;;24.10;80.40;;;;;;5091598;28;19912;-53
2022/12/21 14:09:53;;;;;;;;;;;24.10;80.40;;;;;;5094774;28;19912;-57
2022/12/21 14:12:37;;;;;;;;;;;24.10;80.40;;;;;;5092567;28;19916;-52
2022/12/21 14:15:11;;;;;;;;;;;24.10;80.40;;;;;;5094520;28;19951;-50
2022/12/21 14:17:41;;;;;;;;;;;24.10;80.50;;;;;;5090858;28;20263;-55
2022/12/21 14:20:17;;;;;;;;;;;24.10;80.50;;;;;;5094679;28;19908;-49
2022/12/21 14:22:44;;;;;;;;;;;24.10;80.50;;;;;;5094680;28;19922;-54
2022/12/21 14:25:41;;;;;;;;;;;24.10;80.60;;;;;;5094518;28;20347;-57
2022/12/21 14:28:21;;;;;;;;;;;24.10;80.60;;;;;;5053937;28;20366;-57
2022/12/21 14:31:01;;;;;;;;;;;24.00;80.50;;;;;;5076376;28;19916;-54
2022/12/21 14:33:30;;;;;;;;;;;24.10;80.60;;;;;;5094246;28;19908;-54
2022/12/21 14:36:14;;;;;;;;;;;24.10;80.60;;;;;;5092277;28;20045;-52